Vers la page d'accueil de NAV CANADA Ouverture d'une nouvelle session Chercher sur le site AWWS Clause de non-reponsabilité To the equivalent English page Trucs et astuces FAQ Quoi de neuf sur le site Vers la section Prévisions et observations / NOTAM Vers le site web pour <<Déposer un plan de vol>> Publications et liens importants Mise à jour du profil d'usager Numéros de téléphone des FIC Mes données météo personnelles Données météo de route Données météo régionales Données météo locales Vers la section Prévisions et observations / NOTAM
Requête générée le 2022/06/30 à 11:13:57 UTC. L'information météorologique disponible à ce moment est affichée.

METAR/TAF

Si vous notez des différences entre le METAR/TAF codé et le METAR/TAF en langage clair, veuillez utiliser la version codée. Les bulletins LWIS ne sont pas décodés en langage clair.

MONTREAL/PIERRE-ELLIOTT-TRUDEAU INTL/QC    

METAR CYUL 301100Z 00000KT 15SM FEW006 SCT063 BKN080 16/14 A3022 RMK SF1SC3AC1 P235=
METAR
LIEU
CYUL - MONTREAL/PIERRE-ELLIOTT-TRUDEAU INT
DATE - HEURE
30 JUIN 2022 - 1100 UTC
VENT
CALME
VISIBILITE
15 MILLES TERR.
PORTEE VISUELLE DE PISTE
METEO
NEBULOSITE
QUELQUES NUAGES (1/8 - 2/8) 600  PI
NUAGES EPARS (3/8 - 4/8) 6300  PI
NUAGES FRAGMENTES (5/8 - 7/8) 8000  PI
TEMP / PT DE ROSEE
16 C / 14 C
ALTIMETRE
30.22 PO HG
TEMPS RECENT
CISAILLEMENT

METAR CYUL 301000Z 00000KT 15SM FEW006 SCT060 BKN080 14/14 A3022 RMK SF1SC3AC1 P235=
METAR
LIEU
CYUL - MONTREAL/PIERRE-ELLIOTT-TRUDEAU INT
DATE - HEURE
30 JUIN 2022 - 1000 UTC
VENT
CALME
VISIBILITE
15 MILLES TERR.
PORTEE VISUELLE DE PISTE
METEO
NEBULOSITE
QUELQUES NUAGES (1/8 - 2/8) 600  PI
NUAGES EPARS (3/8 - 4/8) 6000  PI
NUAGES FRAGMENTES (5/8 - 7/8) 8000  PI
TEMP / PT DE ROSEE
14 C / 14 C
ALTIMETRE
30.22 PO HG
TEMPS RECENT
CISAILLEMENT

METAR CYUL 300900Z 23006KT 15SM FEW006 SCT052 14/13 A3020 RMK SF2SC2 SLP229=
METAR
LIEU
CYUL - MONTREAL/PIERRE-ELLIOTT-TRUDEAU INT
DATE - HEURE
30 JUIN 2022 - 0900 UTC
VENT
230 VRAIS @ 6  NOEUDS
VISIBILITE
15 MILLES TERR.
PORTEE VISUELLE DE PISTE
METEO
NEBULOSITE
QUELQUES NUAGES (1/8 - 2/8) 600  PI
NUAGES EPARS (3/8 - 4/8) 5200  PI
TEMP / PT DE ROSEE
14 C / 13 C
ALTIMETRE
30.20 PO HG
TEMPS RECENT
CISAILLEMENT

TAF CYUL 300840Z 3009/0106 30005KT P6SM SKC PROB30 3009/3012 2SM BR BKN004 FM301200 VRB03KT P6SM SKC BECMG 3013/3015 18006KT FM301800 20008KT P6SM SKC FM302100 22012KT P6SM BKN110 FM010300 15009KT P6SM BKN150 BECMG 0104/0106 19009KT RMK NXT FCST BY 301200Z=
TAF
LIEU

CYUL - MONTREAL/PIERRE-ELLIOTT-TRUDEAU INTL/QC
VALIDITE [UTC]
30 JUN - 0840 à
01 JUL - 0600
 
PERIODES
[UTC]
VENT
[DEGRES VRAIS]
VISIBILITE
[MILLES TERR.]
METEO
NEBULOSITE
[PIEDS AGL]
 
30 JUN - 0900 à
30 JUN - 1200
300 @ 5 NOEUDS
6+
---
CIEL DEGAGE
30% PROBABILITE
30 JUN - 0900 à
30 JUN - 1200
 
2
BRUME
400 FRAGMENTES
 
30 JUN - 1200 à
30 JUN - 1800
VARIABLE @ 3 NOEUDS
6+
---
CIEL DEGAGE
CHANGEMENTS GRADUELS
30 JUN - 1300 à
30 JUN - 1500
180 @ 6 NOEUDS
 
 
 
 
30 JUN - 1800 à
30 JUN - 2100
200 @ 8 NOEUDS
6+
---
CIEL DEGAGE
 
30 JUN - 2100 à
01 JUL - 0300
220 @ 12 NOEUDS
6+
---
11000 FRAGMENTES
 
01 JUL - 0300 à
01 JUL - 0600
150 @ 9 NOEUDS
6+
---
15000 FRAGMENTES
CHANGEMENTS GRADUELS
01 JUL - 0400 à
01 JUL - 0600
190 @ 9 NOEUDS
 
 
 
REMARQUES


Votre heure Heure UTC
Données météorologiques fournies par Environnement Canada et NAV CANADA